Time;durP1;ratioP1;P1;durP2;ratioP2;P2;SDS_P1;SDS_P2;PMS_P1;PMS_P2;Temp;Humidity;BMP_temperature;BMP_pressure;BME280_temperature;BME280_humidity;BME280_pressure;Samples;Min_cycle;Max_cycle;Signal;HPM_P1;HPM_P2
2022/08/24 00:02:00;;;;;;;4.45;3.30;;;22.10;43.70;;;24.99;33.02;97733.97;5007927;28;20062;-41
2022/08/24 00:04:29;;;;;;;4.35;3.55;;;22.10;43.60;;;25.01;32.88;97733.69;5008232;28;20332;-40
2022/08/24 00:07:01;;;;;;;3.67;3.20;;;22.20;43.40;;;25.01;33.07;97726.38;5007677;28;20052;-41
2022/08/24 00:09:31;;;;;;;6.10;3.75;;;22.30;43.20;;;25.07;32.98;97730.78;5006631;28;20053;-41
2022/08/24 00:11:59;;;;;;;4.40;3.42;;;22.40;42.80;;;25.14;32.59;97731.44;5006897;28;20046;-41
2022/08/24 00:14:27;;;;;;;3.65;3.22;;;22.60;42.60;;;25.13;32.69;97732.50;5008230;28;20422;-40
2022/08/24 00:16:56;;;;;;;3.70;3.05;;;22.60;42.30;;;25.20;32.67;97736.94;5007506;28;20413;-40
2022/08/24 00:19:25;;;;;;;4.20;3.47;;;22.60;42.10;;;25.24;32.54;97738.09;5007795;28;20050;-40
2022/08/24 00:21:53;;;;;;;4.18;3.22;;;22.70;42.10;;;25.25;32.41;97740.56;5007043;28;20088;-41
2022/08/24 00:24:21;;;;;;;3.55;3.25;;;22.70;42.10;;;25.25;32.46;97740.56;5008245;28;20060;-41
2022/08/24 00:26:49;;;;;;;3.53;3.22;;;22.70;42.30;;;25.22;32.77;97734.78;5021445;28;20079;-41
2022/08/24 00:29:19;;;;;;;5.53;3.60;;;22.50;42.50;;;25.15;32.81;97733.06;5023553;28;20050;-40
2022/08/24 00:31:48;;;;;;;4.03;3.40;;;22.50;42.80;;;25.17;32.57;97737.47;5006966;28;20060;-40
2022/08/24 00:34:17;;;;;;;5.25;3.78;;;22.40;42.60;;;25.18;32.87;97736.38;5008189;28;20057;-41
2022/08/24 00:36:45;;;;;;;4.63;3.60;;;22.40;42.70;;;25.15;32.60;97737.69;5040090;28;20260;-43
2022/08/24 00:39:12;;;;;;;6.47;3.40;;;22.30;42.80;;;25.12;32.65;97743.63;5006183;28;20240;-41
2022/08/24 00:41:44;;;;;;;3.67;3.35;;;22.30;42.80;;;25.09;32.79;97734.09;5005185;28;20061;-40
2022/08/24 00:44:13;;;;;;;4.72;3.95;;;22.30;43.10;;;25.08;33.00;97739.78;5022630;28;20355;-40
2022/08/24 00:47:16;;;;;;;5.18;3.65;;;22.30;43.10;;;25.07;32.73;97744.41;5006627;28;20048;-41
2022/08/24 00:50:09;;;;;;;6.30;4.43;;;22.30;43.30;;;25.10;32.67;97730.28;5005466;28;20364;-40
2022/08/24 00:52:49;;;;;;;3.70;3.35;;;22.30;44.10;;;25.02;32.91;97733.44;5036084;28;20344;-41
2022/08/24 00:55:36;;;;;;;4.05;3.63;;;22.10;44.00;;;24.91;33.26;97726.22;5007291;28;20057;-40
2022/08/24 00:58:24;;;;;;;3.72;2.97;;;22.00;44.30;;;24.76;33.33;97730.38;5036716;28;20279;-42
2022/08/24 01:01:01;;;;;;;4.28;3.80;;;21.80;44.90;;;24.65;33.56;97730.47;5020930;28;20050;-40
2022/08/24 01:03:31;;;;;;;4.90;3.63;;;21.70;45.40;;;24.54;33.94;97732.22;5004687;28;20058;-41
2022/08/24 01:05:59;;;;;;;6.40;4.15;;;21.60;45.30;;;24.49;34.03;97729.41;5037667;28;20046;-40
2022/08/24 01:08:27;;;;;;;5.97;3.40;;;21.50;45.40;;;24.41;33.91;97729.81;5005678;28;20064;-41
2022/08/24 01:11:22;;;;;;;4.53;3.42;;;21.40;45.60;;;24.32;34.14;97722.06;5038514;28;20058;-40
2022/08/24 01:13:52;;;;;;;4.82;3.65;;;21.40;46.20;;;24.29;34.23;97728.03;5004130;28;20372;-41
2022/08/24 01:19:27;;;;;;;5.20;3.35;;;21.30;45.80;;;24.26;34.09;97724.97;5018666;28;20057;-41
2022/08/24 01:22:42;;;;;;;3.35;3.03;;;21.30;46.30;;;24.21;33.94;97725.69;5005973;28;20060;-40
2022/08/24 01:25:10;;;;;;;4.18;3.22;;;21.30;46.20;;;24.27;33.90;97727.44;5007674;28;20058;-40
2022/08/24 01:27:40;;;;;;;5.43;3.53;;;21.40;45.20;;;24.28;34.43;97730.97;5004150;28;20062;-40
2022/08/24 01:30:13;;;;;;;3.95;3.58;;;21.50;45.30;;;24.29;34.16;97744.34;5021129;28;20066;-40
2022/08/24 01:32:58;;;;;;;5.22;3.50;;;21.40;45.50;;;24.30;34.12;97732.38;5004495;28;20062;-40
2022/08/24 01:35:27;;;;;;;5.10;3.67;;;21.40;45.90;;;24.31;34.34;97735.91;5022654;28;20064;-40
2022/08/24 01:37:59;;;;;;;3.83;3.40;;;21.40;45.50;;;24.25;34.42;97734.19;5037873;28;20399;-41
2022/08/24 01:40:38;;;;;;;3.90;3.15;;;21.30;46.70;;;24.21;34.21;97733.84;5020274;28;20402;-41
2022/08/24 01:43:07;;;;;;;4.10;3.35;;;21.30;46.20;;;24.16;34.42;97734.59;5006086;28;20042;-40
2022/08/24 01:45:36;;;;;;;4.70;3.67;;;21.30;46.10;;;24.15;34.46;97743.00;5007525;28;20247;-40
2022/08/24 01:48:04;;;;;;;3.70;3.30;;;21.20;46.10;;;24.07;34.72;97743.41;5005849;28;20053;-40
2022/08/24 01:50:32;;;;;;;6.35;3.30;;;21.10;46.60;;;24.00;34.76;97738.16;5019813;28;20375;-40
2022/08/24 01:53:04;;;;;;;4.93;3.70;;;21.00;46.60;;;23.97;34.73;97741.34;5004454;28;20060;-40
2022/08/24 01:55:34;;;;;;;4.95;3.50;;;21.00;46.80;;;23.95;34.87;97741.56;5037843;28;20397;-40
2022/08/24 01:58:04;;;;;;;6.68;3.80;;;21.00;46.60;;;23.89;34.92;97739.84;5005885;28;20045;-40
2022/08/24 02:00:32;;;;;;;4.00;3.58;;;20.90;46.90;;;23.86;34.80;97743.03;5037548;28;20370;-40
2022/08/24 02:03:01;;;;;;;5.38;4.80;;;20.90;47.00;;;23.81;35.43;97742.97;5007468;28;20060;-40
2022/08/24 02:05:29;;;;;;;4.55;4.10;;;20.80;47.10;;;23.76;35.34;97749.09;5023193;28;20054;-40
2022/08/24 02:07:58;;;;;;;6.15;3.85;;;20.80;47.10;;;23.75;35.24;97749.34;5024236;28;20050;-40
2022/08/24 02:10:28;;;;;;;5.38;3.80;;;20.80;47.10;;;23.70;35.22;97746.53;5040909;28;20279;-40
2022/08/24 02:12:57;;;;;;;5.75;3.88;;;20.80;47.20;;;23.66;35.49;97748.91;5040390;28;20080;-40
2022/08/24 02:15:33;;;;;;;4.65;3.85;;;20.70;47.40;;;23.67;35.60;97756.00;5040428;28;20066;-40
2022/08/24 02:18:03;;;;;;;4.82;4.32;;;20.70;47.60;;;23.65;35.53;97763.56;5039327;28;20352;-40
2022/08/24 02:20:32;;;;;;;4.00;3.60;;;20.70;47.50;;;23.61;35.50;97754.22;5041596;28;20054;-40
2022/08/24 02:23:00;;;;;;;7.20;3.88;;;20.70;47.60;;;23.59;35.48;97764.53;5009419;28;20073;-40
2022/08/24 02:25:29;;;;;;;4.43;3.97;;;20.70;47.60;;;23.56;35.51;97770.47;5040908;28;20126;-40
2022/08/24 02:27:59;;;;;;;4.35;3.95;;;20.70;47.60;;;23.51;35.92;97773.88;5039855;28;20380;-41
2022/08/24 02:30:29;;;;;;;6.70;4.88;;;20.60;47.90;;;23.49;36.08;97764.34;5006568;28;20065;-40
2022/08/24 02:32:58;;;;;;;5.57;4.68;;;20.60;48.30;;;23.45;36.23;97769.41;5024159;28;20068;-40
2022/08/24 02:35:28;;;;;;;4.20;3.80;;;20.60;48.50;;;23.42;36.06;97767.19;5008818;28;20057;-40
2022/08/24 02:37:57;;;;;;;4.50;4.10;;;20.50;48.70;;;23.37;36.74;97769.81;5025441;28;20064;-40
2022/08/24 02:40:27;;;;;;;15.65;4.88;;;20.60;49.00;;;23.33;36.91;97760.50;5008177;28;20052;-41
2022/08/24 02:42:55;;;;;;;4.88;4.35;;;20.60;49.50;;;23.35;36.68;97755.63;5024167;28;20058;-40
2022/08/24 02:45:24;;;;;;;4.35;3.95;;;20.60;49.50;;;23.39;37.05;97768.50;5040860;28;20050;-40
2022/08/24 02:47:52;;;;;;;4.75;4.10;;;20.60;49.50;;;23.37;37.30;97756.22;5008481;28;20061;-40
2022/08/24 02:50:22;;;;;;;5.55;4.38;;;20.50;50.40;;;23.30;37.73;97761.81;5006652;28;20058;-40
2022/08/24 02:52:50;;;;;;;6.07;4.40;;;20.40;50.90;;;23.28;38.10;97763.09;5039151;28;20271;-40
2022/08/24 02:55:18;;;;;;;6.13;4.15;;;20.40;51.40;;;23.27;38.23;97754.13;5008676;28;20243;-40
2022/08/24 02:57:50;;;;;;;7.80;5.97;;;20.50;51.70;;;23.26;38.40;97757.88;5040638;28;20057;-40
2022/08/24 03:00:21;;;;;;;8.48;4.85;;;20.40;51.80;;;23.26;38.38;97757.06;5006967;28;20054;-40
2022/08/24 03:02:53;;;;;;;7.32;5.03;;;20.40;52.20;;;23.25;38.52;97758.16;5023382;28;20068;-40
2022/08/24 03:05:24;;;;;;;8.85;5.78;;;20.30;52.20;;;23.19;38.50;97751.78;5023429;28;20233;-40
2022/08/24 03:07:53;;;;;;;5.03;4.57;;;20.30;52.50;;;23.16;38.54;97749.53;5008274;28;20232;-40
2022/08/24 03:10:21;;;;;;;5.13;4.57;;;20.20;52.80;;;23.12;38.74;97754.63;5039813;28;20728;-40
2022/08/24 03:12:50;;;;;;;4.65;4.00;;;20.20;52.80;;;23.14;38.68;97749.78;5006637;28;20053;-40
2022/08/24 03:15:21;;;;;;;4.78;4.28;;;20.30;52.70;;;23.11;38.63;97752.97;5022701;28;20058;-40
2022/08/24 03:17:50;;;;;;;6.68;4.72;;;20.30;52.70;;;23.14;38.61;97749.78;5007482;28;20057;-40
2022/08/24 03:20:22;;;;;;;5.07;4.22;;;20.40;52.40;;;23.18;39.25;97750.94;5038643;28;20046;-41
2022/08/24 03:22:51;;;;;;;7.72;4.70;;;20.40;52.50;;;23.18;38.90;97748.22;5007747;28;20239;-40
2022/08/24 03:25:23;;;;;;;6.13;4.43;;;20.40;52.50;;;23.20;38.71;97742.56;5007379;28;20046;-41
2022/08/24 03:27:52;;;;;;;5.07;4.57;;;20.40;52.30;;;23.23;38.86;97746.72;5022369;28;20437;-40
2022/08/24 03:30:21;;;;;;;5.95;4.85;;;20.40;52.10;;;23.23;38.51;97746.72;5007971;28;20052;-40
2022/08/24 03:32:50;;;;;;;5.28;4.40;;;20.40;52.20;;;23.23;38.52;97752.97;5008831;28;20049;-40
2022/08/24 03:35:20;;;;;;;7.15;4.88;;;20.30;52.20;;;23.21;38.49;97744.22;5007153;28;20068;-40
2022/08/24 03:37:50;;;;;;;5.45;5.00;;;20.30;52.50;;;23.17;39.04;97752.03;5007763;28;20049;-40
2022/08/24 03:40:19;;;;;;;26.58;5.60;;;20.30;52.70;;;23.15;38.61;97747.91;5023850;28;20295;-40
2022/08/24 03:42:52;;;;;;;5.15;4.65;;;20.20;52.70;;;23.09;39.00;97748.84;5037677;28;20061;-40
2022/08/24 03:45:21;;;;;;;6.55;5.10;;;20.10;53.10;;;23.03;39.03;97747.09;5006682;28;20056;-40
2022/08/24 03:47:50;;;;;;;6.07;5.03;;;20.10;53.30;;;22.98;39.05;97750.50;5006422;28;20057;-40
2022/08/24 03:50:19;;;;;;;5.25;4.72;;;20.10;53.40;;;22.98;39.42;97747.78;5006967;28;20064;-40
2022/08/24 03:52:48;;;;;;;7.32;4.53;;;20.00;53.50;;;22.96;39.06;97745.28;5021925;28;20050;-40
2022/08/24 03:55:18;;;;;;;6.93;4.95;;;20.00;53.50;;;22.93;39.08;97747.66;5008253;28;20064;-40
2022/08/24 03:57:46;;;;;;;7.03;4.85;;;20.00;53.60;;;22.88;39.21;97742.97;5007650;28;20062;-40
2022/08/24 04:00:15;;;;;;;5.45;4.95;;;19.90;53.80;;;22.87;39.55;97751.34;5038886;28;20061;-40
2022/08/24 04:02:52;;;;;;;5.00;4.35;;;20.00;53.40;;;22.88;39.74;97756.53;5005894;28;20235;-40
2022/08/24 04:05:23;;;;;;;6.88;5.13;;;20.10;53.70;;;22.86;39.38;97753.22;5040726;28;20069;-40
2022/08/24 04:07:51;;;;;;;7.20;4.80;;;20.10;53.50;;;22.84;39.76;97754.50;5005431;28;20053;-40
2022/08/24 04:10:20;;;;;;;7.40;5.10;;;20.10;53.70;;;22.87;39.63;97754.03;5008068;28;20264;-40
2022/08/24 04:12:48;;;;;;;5.97;4.47;;;20.10;53.80;;;22.86;39.74;97755.13;5021301;28;20065;-40
2022/08/24 04:15:17;;;;;;;5.90;4.47;;;20.00;53.80;;;22.83;39.32;97756.41;5007458;28;20046;-40
2022/08/24 04:17:45;;;;;;;7.25;4.72;;;19.90;53.90;;;22.79;39.38;97755.22;5022014;28;20057;-40
2022/08/24 04:20:13;;;;;;;6.68;4.70;;;19.90;54.10;;;22.78;39.64;97754.41;5041107;28;20054;-40
2022/08/24 04:22:41;;;;;;;11.73;5.70;;;19.90;54.00;;;22.77;39.76;97757.34;5021488;28;20054;-40
2022/08/24 04:25:10;;;;;;;11.10;5.05;;;19.80;53.70;;;22.75;39.26;97751.34;5005895;28;20045;-40
2022/08/24 04:27:40;;;;;;;4.93;4.30;;;19.80;53.80;;;22.72;39.41;97762.66;5004639;28;20280;-40
2022/08/24 04:30:10;;;;;;;5.38;4.47;;;19.80;53.90;;;22.71;39.25;97761.84;5038996;28;20050;-40
2022/08/24 04:33:04;;;;;;;6.32;4.68;;;19.80;53.60;;;22.73;39.29;97758.91;5006222;28;20072;-41
2022/08/24 04:35:37;;;;;;;4.30;3.60;;;19.80;53.40;;;22.72;39.18;97768.94;5005974;28;20062;-40
2022/08/24 04:38:07;;;;;;;11.13;4.65;;;19.90;53.90;;;22.73;39.35;97761.63;5006778;28;20357;-40
2022/08/24 04:40:39;;;;;;;7.30;4.65;;;19.80;53.60;;;22.70;39.55;97770.22;5004660;28;20255;-40
2022/08/24 04:43:08;;;;;;;5.95;4.35;;;19.90;54.20;;;22.73;39.64;97769.75;5005916;28;20050;-40
2022/08/24 04:45:40;;;;;;;5.90;4.43;;;19.90;53.80;;;22.72;39.29;97773.50;5007110;28;20050;-40
2022/08/24 04:48:09;;;;;;;8.63;5.13;;;19.80;53.60;;;22.69;39.68;97777.53;5006013;28;20382;-41
2022/08/24 04:50:39;;;;;;;5.75;4.82;;;19.80;54.00;;;22.66;39.71;97775.28;5021274;28;20053;-40
2022/08/24 04:53:09;;;;;;;5.75;4.38;;;19.80;54.50;;;22.65;39.85;97775.53;5022013;28;20076;-40
2022/08/24 04:55:48;;;;;;;7.22;5.10;;;19.70;54.70;;;22.64;40.13;97782.00;5038845;28;20065;-41
2022/08/24 04:58:18;;;;;;;6.45;4.60;;;19.70;55.70;;;22.62;40.15;97782.25;5005674;28;20394;-40
2022/08/24 05:00:46;;;;;;;6.32;5.25;;;19.70;55.80;;;22.60;40.28;97779.78;5006154;28;20355;-40
2022/08/24 05:03:15;;;;;;;6.50;5.00;;;19.70;55.20;;;22.61;40.27;97783.31;5038398;28;20060;-40
2022/08/24 05:05:47;;;;;;;6.50;5.10;;;19.70;55.20;;;22.62;40.12;97790.38;5037741;28;20364;-40
2022/08/24 05:08:18;;;;;;;6.10;5.30;;;19.70;55.10;;;22.65;40.13;97802.66;5005273;28;20064;-40
2022/08/24 05:10:48;;;;;;;10.73;4.57;;;19.70;55.20;;;22.65;40.49;97799.97;5038133;28;20364;-40
2022/08/24 05:13:18;;;;;;;7.07;5.25;;;19.80;55.20;;;22.68;40.42;97804.91;5022469;28;20058;-40
2022/08/24 05:15:48;;;;;;;8.27;4.72;;;19.80;55.10;;;22.72;40.38;97803.34;5021443;28;20067;-40
2022/08/24 05:18:16;;;;;;;6.90;4.60;;;19.90;55.00;;;22.73;40.11;97791.47;5021415;28;20054;-41
2022/08/24 05:20:46;;;;;;;8.00;5.05;;;19.90;54.70;;;22.76;40.27;97797.25;5038924;28;20057;-40
2022/08/24 05:23:14;;;;;;;6.30;5.20;;;20.00;55.00;;;22.84;40.43;97806.06;5004582;28;20178;-40
2022/08/24 05:25:42;;;;;;;6.90;5.35;;;20.00;54.80;;;22.86;40.15;97803.97;5021815;28;20058;-40
2022/08/24 05:28:11;;;;;;;9.63;5.93;;;20.10;54.70;;;22.88;40.25;97801.84;5038897;28;20225;-40
2022/08/24 05:30:38;;;;;;;6.88;6.10;;;20.10;54.90;;;22.91;40.19;97804.88;5005039;28;20058;-40
2022/08/24 05:33:10;;;;;;;7.78;7.07;;;20.10;54.60;;;22.94;40.20;97799.00;5037541;28;20057;-40
2022/08/24 05:35:38;;;;;;;9.30;6.75;;;20.20;54.60;;;22.95;40.29;97811.53;5007483;28;20058;-40
2022/08/24 05:38:12;;;;;;;9.20;6.80;;;20.20;54.70;;;23.00;40.40;97803.47;5020366;28;20050;-40
2022/08/24 05:40:41;;;;;;;9.93;7.07;;;20.10;54.60;;;23.00;40.40;97810.81;5007599;28;20373;-40
2022/08/24 05:43:13;;;;;;;7.85;6.45;;;20.20;54.60;;;23.00;40.29;97813.53;5009333;28;20074;-40
2022/08/24 05:45:43;;;;;;;8.30;7.43;;;20.10;55.00;;;23.01;40.28;97817.88;5040636;28;20060;-40
2022/08/24 05:48:11;;;;;;;9.13;7.07;;;20.10;55.00;;;22.98;40.03;97810.22;5008496;28;20449;-41
2022/08/24 05:51:13;;;;;;;8.88;6.53;;;20.10;54.90;;;23.06;39.78;97812.59;5027795;28;20062;-40
2022/08/24 05:53:53;;;;;;;14.27;5.97;;;20.20;54.50;;;23.12;40.11;97810.81;5024487;28;20056;-40
2022/08/24 05:56:23;;;;;;;9.35;5.93;;;20.30;54.30;;;23.16;39.91;97812.81;5025632;28;20364;-40
2022/08/24 05:58:55;;;;;;;7.70;4.93;;;20.40;54.20;;;23.24;40.08;97803.47;5009479;28;20064;-40
2022/08/24 06:01:25;;;;;;;7.85;5.80;;;20.50;54.10;;;23.29;40.17;97811.75;5009047;28;20060;-40
2022/08/24 06:03:56;;;;;;;7.63;4.72;;;20.60;54.20;;;23.35;40.01;97815.41;5007160;28;20064;-40
2022/08/24 06:06:25;;;;;;;7.28;5.80;;;20.70;54.10;;;23.42;40.18;97809.81;5024125;28;20050;-41
2022/08/24 06:08:57;;;;;;;7.63;5.70;;;20.70;54.10;;;23.49;40.35;97813.22;5024786;28;20462;-41
2022/08/24 06:11:33;;;;;;;5.22;4.75;;;20.80;54.30;;;23.57;39.82;97815.56;5006479;28;20064;-40
2022/08/24 06:14:08;;;;;;;5.55;4.70;;;20.90;54.10;;;23.62;40.03;97821.13;5009254;28;20260;-41
2022/08/24 06:16:48;;;;;;;5.45;4.95;;;20.90;53.70;;;23.68;39.48;97813.88;5023285;28;20056;-40
2022/08/24 06:19:18;;;;;;;5.70;4.88;;;21.00;53.30;;;23.71;39.72;97816.97;5008746;28;20366;-41
2022/08/24 06:21:50;;;;;;;8.73;4.60;;;21.00;53.50;;;23.75;39.69;97812.69;5007969;28;20046;-42
2022/08/24 06:27:19;;;;;;;5.95;5.35;;;21.10;53.40;;;23.83;39.72;97813.41;5024839;28;20056;-40
2022/08/24 06:27:20;;;;;;;12.52;6.13;;;21.20;53.30;;;23.92;39.88;97815.50;5009877;28;20046;-40
2022/08/24 06:29:57;;;;;;;8.00;6.45;;;21.30;53.90;;;24.02;40.10;97819.44;5008681;28;20045;-40
2022/08/24 06:32:44;;;;;;;10.85;6.50;;;21.40;54.70;;;24.09;40.07;97820.13;5011598;28;20405;-40
2022/08/24 06:35:24;;;;;;;13.23;7.40;;;21.50;54.10;;;24.13;39.85;97815.84;5024542;28;20280;-41
2022/08/24 06:37:52;;;;;;;12.77;7.07;;;21.60;53.90;;;24.17;40.00;97820.56;5006836;28;20066;-41
2022/08/24 06:40:20;;;;;;;12.85;7.72;;;21.60;53.60;;;24.20;39.64;97815.72;5006716;28;20068;-40
2022/08/24 06:42:49;;;;;;;10.55;7.85;;;21.60;53.00;;;24.23;39.55;97823.38;5008690;28;20048;-40
2022/08/24 06:45:22;;;;;;;15.00;7.78;;;21.60;52.90;;;24.28;39.62;97827.00;5041350;28;20050;-40
2022/08/24 06:47:51;;;;;;;6.55;5.93;;;21.60;53.10;;;24.29;39.52;97823.22;5024322;28;20046;-40
2022/08/24 06:50:20;;;;;;;10.02;5.72;;;21.60;53.10;;;24.33;39.43;97818.09;5020131;28;20355;-40
2022/08/24 06:52:51;;;;;;;8.95;5.78;;;21.70;53.00;;;24.36;39.26;97828.50;5008969;28;20594;-41
2022/08/24 06:55:20;;;;;;;12.40;6.05;;;21.70;52.80;;;24.42;39.37;97832.13;5023484;28;20066;-40
2022/08/24 06:57:48;;;;;;;14.48;5.55;;;21.80;52.90;;;24.46;39.47;97830.56;5008086;28;20054;-41
2022/08/24 07:00:21;;;;;;;21.35;7.65;;;21.80;52.90;;;24.50;39.27;97835.25;5008420;28;20366;-40
2022/08/24 07:03:21;;;;;;;21.77;7.65;;;21.80;52.70;;;24.57;39.23;97835.16;5042671;28;20060;-41
2022/08/24 07:05:57;;;;;;;7.90;5.60;;;21.90;52.60;;;24.62;38.88;97839.84;5007022;28;20057;-40
2022/08/24 07:08:42;;;;;;;9.73;6.32;;;22.00;52.00;;;24.63;38.87;97836.88;5024138;28;20355;-40
2022/08/24 07:11:13;;;;;;;14.63;7.40;;;22.00;51.80;;;24.67;38.91;97840.75;5023366;28;20059;-40
2022/08/24 07:13:46;;;;;;;8.25;5.05;;;22.00;51.90;;;24.71;38.82;97841.09;5008899;28;20657;-40
2022/08/24 07:16:19;;;;;;;14.33;6.50;;;22.10;51.70;;;24.77;38.71;97840.91;5041045;28;20079;-40
2022/08/24 07:18:51;;;;;;;8.20;5.25;;;22.20;51.70;;;24.82;38.57;97840.16;5023717;28;20287;-40
2022/08/24 07:21:22;;;;;;;5.88;4.57;;;22.20;51.40;;;24.84;38.57;97842.66;5040232;28;20489;-40
2022/08/24 07:23:56;;;;;;;10.07;5.38;;;22.30;51.30;;;24.89;38.52;97842.72;5022334;28;20056;-40
2022/08/24 07:26:28;;;;;;;7.65;5.38;;;22.30;51.30;;;24.91;38.38;97848.72;5024214;28;20050;-40
2022/08/24 07:29:04;;;;;;;8.35;5.13;;;22.40;51.00;;;24.97;38.38;97842.31;5040854;28;20050;-40
2022/08/24 07:31:40;;;;;;;8.15;4.90;;;22.40;50.90;;;25.05;38.13;97841.06;5023160;28;20064;-39
2022/08/24 07:34:14;;;;;;;6.18;4.20;;;22.50;50.70;;;25.10;37.95;97849.28;5041076;28;20058;-40
2022/08/24 07:36:44;;;;;;;9.13;4.47;;;22.60;50.50;;;25.15;37.75;97849.38;5006828;28;20054;-40
2022/08/24 07:39:12;;;;;;;7.38;5.55;;;22.60;50.10;;;25.19;37.45;97853.25;5023545;28;20058;-40
2022/08/24 07:41:43;;;;;;;5.97;4.03;;;22.70;49.50;;;25.26;37.43;97855.81;5008090;28;20069;-40
2022/08/24 07:44:31;;;;;;;9.95;4.35;;;22.80;49.30;;;25.34;37.09;97853.50;5006142;28;20870;-40
2022/08/24 07:46:59;;;;;;;8.07;4.28;;;22.80;49.30;;;25.38;36.96;97855.69;5007901;28;20060;-39
2022/08/24 07:49:48;;;;;;;6.00;3.90;;;22.80;48.80;;;25.43;36.88;97853.06;5008188;28;20064;-40
2022/08/24 07:52:16;;;;;;;5.80;4.05;;;22.90;48.60;;;25.46;36.69;97855.28;5022421;28;20072;-39
2022/08/24 07:54:45;;;;;;;7.88;4.38;;;22.90;48.10;;;25.49;36.87;97855.63;5022886;28;20054;-40
2022/08/24 07:57:14;;;;;;;6.10;4.18;;;23.00;48.30;;;25.53;36.80;97854.03;5008881;28;20763;-39
2022/08/24 07:59:41;;;;;;;8.13;4.30;;;23.00;48.20;;;25.60;36.89;97853.00;5005968;28;20221;-39
2022/08/24 08:02:10;;;;;;;4.75;3.90;;;23.10;48.30;;;25.64;36.94;97860.41;5038202;28;20185;-40
2022/08/24 08:04:39;;;;;;;7.15;3.97;;;23.10;48.40;;;25.70;36.63;97862.13;5023102;28;20129;-39
2022/08/24 08:07:08;;;;;;;9.32;4.45;;;23.20;48.30;;;25.76;36.68;97859.47;5038631;28;20050;-40
2022/08/24 08:09:38;;;;;;;6.70;4.43;;;23.30;48.10;;;25.81;36.53;97865.00;5039340;28;20062;-40
2022/08/24 08:12:08;;;;;;;6.55;4.45;;;23.30;47.90;;;25.87;36.46;97866.69;5020929;28;20360;-40
2022/08/24 08:14:41;;;;;;;;;;;23.30;47.90;;;26.08;35.96;97867.78;5007868;28;20068;-40
2022/08/24 08:17:10;;;;;;;10.20;5.10;;;23.40;47.70;;;26.05;36.31;97869.09;5006800;28;19932;-40
2022/08/24 08:19:38;;;;;;;14.60;7.65;;;23.40;48.20;;;26.04;36.77;97872.13;5021684;28;20360;-39
2022/08/24 08:25:13;;;;;;;11.80;5.30;;;23.50;49.00;;;26.15;36.72;97873.03;5008584;28;20060;-40
2022/08/24 08:27:41;;;;;;;7.00;5.00;;;23.70;48.60;;;26.15;36.42;97873.84;5040711;28;20052;-40
2022/08/24 08:30:09;;;;;;;8.60;4.70;;;23.70;48.10;;;26.19;35.85;97874.16;5037180;28;20062;-40
2022/08/24 08:32:37;;;;;;;5.10;4.10;;;23.70;47.70;;;26.22;35.59;97870.94;5022253;28;20060;-40
2022/08/24 08:35:06;;;;;;;4.78;3.70;;;23.80;46.40;;;26.27;34.91;97874.53;5015479;28;20058;-39
2022/08/24 08:37:36;;;;;;;7.55;3.90;;;23.80;45.50;;;26.31;34.91;97869.41;5017119;28;20050;-40
2022/08/24 08:40:16;;;;;;;7.75;4.15;;;23.80;45.30;;;26.37;34.60;97873.81;5017394;28;20356;-40
2022/08/24 08:43:07;;;;;;;4.63;2.85;;;23.90;44.00;;;26.45;33.93;97878.00;5032918;28;20041;-39
2022/08/24 08:46:33;;;;;;;4.65;2.60;;;23.90;41.90;;;26.51;33.39;97868.75;5017796;28;20045;-40
2022/08/24 08:49:51;;;;;;;4.97;3.20;;;24.00;41.70;;;26.56;32.62;97870.69;5016647;28;20344;-40
2022/08/24 08:52:47;;;;;;;7.65;2.90;;;24.00;41.90;;;26.58;32.83;97863.91;5030258;28;20423;-40
2022/08/24 08:55:32;;;;;;;5.13;3.13;;;24.10;41.60;;;26.64;32.66;97860.19;5016657;28;20050;-40
2022/08/24 08:59:00;;;;;;;6.55;3.58;;;24.10;39.90;;;26.71;32.66;97868.97;5031189;28;20054;-40
2022/08/24 09:02:14;;;;;;;9.18;4.38;;;24.20;39.20;;;26.83;32.23;97873.41;5016046;28;20252;-40
2022/08/24 09:05:25;;;;;;;6.90;3.35;;;24.30;39.40;;;26.86;31.89;97861.97;5021175;28;20081;-40
2022/08/24 09:08:18;;;;;;;4.25;3.10;;;24.40;39.70;;;26.88;31.43;97865.28;5011825;28;20064;-40
2022/08/24 09:11:40;;;;;;;7.97;3.72;;;24.40;40.40;;;26.94;32.12;97869.69;5040437;28;20221;-40
2022/08/24 09:14:53;;;;;;;3.95;2.88;;;24.40;39.50;;;27.03;31.66;97868.13;5014804;28;20061;-40
2022/08/24 09:17:52;;;;;;;7.93;3.75;;;24.60;39.30;;;27.10;31.86;97865.16;5017418;28;20057;-40
2022/08/24 09:20:49;;;;;;;6.10;2.78;;;24.60;39.10;;;27.13;31.59;97870.09;5016495;28;20352;-40
2022/08/24 09:24:00;;;;;;;4.53;2.90;;;24.70;39.20;;;27.16;31.55;97863.28;5014251;28;20208;-40
2022/08/24 09:26:30;;;;;;;8.52;3.30;;;24.70;38.60;;;27.21;30.90;97857.84;4997409;28;20049;-40
2022/08/24 09:29:52;;;;;;;5.55;2.90;;;24.80;39.30;;;27.30;30.90;97856.31;5012432;28;20404;-40
2022/08/24 09:33:14;;;;;;;4.72;2.35;;;24.90;37.50;;;27.38;30.34;97858.53;4990382;28;20089;-40
2022/08/24 09:36:14;;;;;;;8.88;3.13;;;25.00;37.20;;;27.45;30.53;97855.56;5010276;28;20275;-40
2022/08/24 09:39:09;;;;;;;4.20;2.60;;;25.00;38.60;;;27.52;30.70;97856.13;5004708;28;20053;-40
2022/08/24 09:42:06;;;;;;;4.80;2.55;;;25.00;37.50;;;27.56;30.18;97846.31;5009492;28;20058;-40
2022/08/24 09:44:58;;;;;;;6.57;2.72;;;25.10;38.30;;;27.61;30.34;97854.56;5008960;28;20056;-40
2022/08/24 09:47:57;;;;;;;4.78;2.90;;;25.20;37.70;;;27.67;30.24;97858.13;5009642;28;20064;-40
2022/08/24 09:50:58;;;;;;;2.78;2.53;;;25.20;37.90;;;27.70;29.30;97854.84;5008127;28;20370;-41
2022/08/24 09:54:00;;;;;;;3.70;2.90;;;25.20;36.40;;;27.72;29.92;97855.41;5010345;28;20061;-40
2022/08/24 09:56:44;;;;;;;3.08;2.60;;;25.30;36.50;;;27.76;29.63;97851.06;5009498;28;20058;-40
2022/08/24 09:59:49;;;;;;;2.60;2.40;;;25.40;37.10;;;27.80;29.82;97852.16;5009518;28;20404;-40
2022/08/24 10:02:57;;;;;;;10.25;3.25;;;25.40;36.40;;;27.83;29.64;97845.34;5009985;28;20056;-40
2022/08/24 10:05:58;;;;;;;2.75;2.50;;;25.50;36.00;;;27.91;29.88;97849.50;5007291;28;20046;-40
2022/08/24 10:08:48;;;;;;;9.10;3.63;;;25.50;36.10;;;27.95;29.35;97842.38;5008861;28;20374;-40
2022/08/24 10:11:37;;;;;;;2.97;2.65;;;25.50;36.20;;;28.02;29.63;97841.03;5009460;28;20399;-40
2022/08/24 10:14:48;;;;;;;3.10;2.80;;;25.60;35.90;;;28.07;29.80;97840.22;5008943;28;20336;-40
2022/08/24 10:17:15;;;;;;;5.20;2.65;;;25.60;36.40;;;28.14;29.31;97840.78;5011155;28;20058;-42
2022/08/24 10:20:10;;;;;;;4.53;2.90;;;25.70;36.80;;;28.19;29.30;97837.22;5009107;28;20370;-40
2022/08/24 10:23:13;;;;;;;3.70;3.00;;;25.80;35.80;;;28.26;29.37;97841.34;5009566;28;20093;-40
2022/08/24 10:26:22;;;;;;;4.10;2.63;;;25.90;35.50;;;28.34;29.16;97844.66;5006738;28;20049;-40
2022/08/24 10:29:20;;;;;;;3.55;2.65;;;25.90;35.10;;;28.42;28.83;97834.00;5005959;28;20386;-40
2022/08/24 10:32:20;;;;;;;3.35;2.97;;;26.10;35.70;;;28.47;29.02;97831.25;5008251;28;20087;-40
2022/08/24 10:35:16;;;;;;;3.67;3.10;;;26.10;35.70;;;28.52;29.07;97819.53;5006417;28;20076;-40
2022/08/24 10:39:39;;;;;;;10.27;3.20;;;26.20;35.80;;;28.61;29.08;97828.00;5008057;28;20053;-40
2022/08/24 10:40:53;;;;;;;3.38;3.08;;;26.30;35.90;;;28.72;28.36;97824.19;5008835;28;20074;-40
2022/08/24 10:43:59;;;;;;;5.55;2.85;;;26.30;35.30;;;28.78;28.49;97822.25;5006543;28;20046;-40
2022/08/24 10:46:56;;;;;;;5.40;3.13;;;26.40;35.20;;;28.87;28.62;97823.34;4989239;28;20054;-40
2022/08/24 10:49:47;;;;;;;3.42;2.97;;;26.50;36.00;;;28.90;28.31;97822.78;5008345;28;20054;-40
2022/08/24 10:52:56;;;;;;;4.32;3.83;;;26.60;35.00;;;28.97;28.30;97815.09;5008215;28;20064;-40
2022/08/24 10:55:32;;;;;;;3.22;2.92;;;26.60;34.60;;;29.02;28.40;97815.13;5008557;28;20088;-40
2022/08/24 10:58:12;;;;;;;4.57;2.90;;;26.70;35.40;;;29.05;28.10;97808.25;5008227;28;20061;-40
2022/08/24 11:00:40;;;;;;;6.53;3.20;;;26.70;34.70;;;29.06;28.19;97813.47;5008686;28;20054;-40
2022/08/24 11:03:22;;;;;;;6.10;3.55;;;26.70;35.30;;;29.12;28.02;97810.69;5008982;28;20053;-40
2022/08/24 11:05:56;;;;;;;3.28;2.95;;;26.70;34.50;;;29.17;27.81;97810.72;5009326;28;20356;-40